sim
Sign-in with your pilot id or email,
or register
Callsign
Passwort

Schedule Details

Flight Number: DLH2661 (4)
Departure: Palma de Mallorca Airport (LEPA) at 17:30
Arrival: Munich Airport (EDDM) at 19:40
Route: Lufthansa Passenger Schedule. Enter filed route here before submitting Pirep.

Weather Information
Getting current METAR information for LEPA 241200Z 24014KT 210V280 9999 FEW020 29/19 Q1012 NOSIG
Getting current METAR information for EDDM 241220Z VRB03KT 9999 FEW033 21/13 Q1009 NOSIG

Schedule Frequency

Route Map